EKYT/AAL METAR and TAF weather

Enter ICAO airport designator
Station Type Date Time Source
EKYT METAR 2018/01/22 11:50 UTC NOAA

EKYT 221150Z 13013KT 5000 SCT007 BKN011 02/00 Q1009


Station Type Date Time Source
EKYT Decoded METAR 2018/01/22 11:50 UTC NOAA

Aalborg, Denmark (EKYT) 57-06N 009-51E 13M
Jan 22, 2018 - 06:50 AM EST / 2018.01.22 1150 UTC
Wind: from the SE (130 degrees) at 15 MPH (13 KT):0
Visibility: 3 mile(s):0
Sky conditions: mostly cloudy
Temperature: 35 F (2 C)
Windchill: 24 F (-4 C):1
Dew Point: 32 F (0 C)
Relative Humidity: 86%
Pressure (altimeter): 29.80 in. Hg (1009 hPa)
ob: EKYT 221150Z 13013KT 5000 SCT007 BKN011 02/00 Q1009
cycle: 12

Station Type Date Time Source
EKYT TAF 2018/01/22 12:36 UTC NOAA

TAF EKYT 221130Z 2212/2312 13010KT 8000 SCT006 BKN015
TEMPO 2212/2312 3000 -SNRASG BR BKN006


Example: see airport list